KCKC

Details ICAO KCKC (GRM)
Name GRAND MARAIS COOK CO
Region United States
Timezone America/Chicago (UTC-6.0)
Plans Departing 2
Arriving 7
Stats Elevation 1,799 ft / 548 m (AMSL)
Location 47.838340° -90.382952°
Runways 1
Magnetic Variation 2.682° W
Sunrise 2017-12-13 13:44:02 UTC / 2017-12-13 07:44:02 Local
Sunset 2017-12-13 22:10:30 UTC / 2017-12-13 16:10:30 Local
Advertisement - Login to hide

Runways

ID Width Length Bearing (true) Bearing (mag) Surface Threshold Offset Overrun Length
09 75 ft / 23 m 4,188 ft / 1,277 m 94.70° 97.38° Asphalt 0 ft / 0 m 0 ft / 0 m
27 75 ft / 23 m 4,188 ft / 1,277 m 274.71° 277.39° Asphalt 0 ft / 0 m 0 ft / 0 m

Map

Weather


0- 5 10 15 20 25 30 35+ Temperature / ° C

Clouds and Precipitation
Forecast for 2017-12-14 06:00 UTC. Updated an hour ago

Ground ~20,000 ft ~40,000 ft Winds

METAR

KCKC 140235Z AUTO 00000KT 10SM CLR M18/M21 A2982 RMK AO2

TAF

Not found

Frequencies

Recorded 119.92 MHz AWOS 3
Unicom 122.80 MHz CTAF/UNICOM
Warning: Do not use this data for real-world aviation or navigation. No guarantee of current accuracy is given.